Time;durP1;ratioP1;P1;durP2;ratioP2;P2;SDS_P1;SDS_P2;PMS_P1;PMS_P2;Temp;Humidity;BMP_temperature;BMP_pressure;BME280_temperature;BME280_humidity;BME280_pressure;Samples;Min_cycle;Max_cycle;Signal;HPM_P1;HPM_P2
2022/06/15 00:01:26;;;;;;;9.07;3.70;;;15.50;32.40;;;;;;5081910;28;20372;-77
2022/06/15 00:03:52;;;;;;;9.60;3.75;;;15.40;33.30;;;;;;5076267;28;20732;-79
2022/06/15 00:06:24;;;;;;;8.77;3.50;;;15.50;33.80;;;;;;5086564;28;20438;-82
2022/06/15 00:08:52;;;;;;;12.88;3.90;;;15.60;33.20;;;;;;5072097;28;20407;-82
2022/06/15 00:11:31;;;;;;;12.18;4.10;;;15.70;32.90;;;;;;5081361;28;20468;-84
2022/06/15 00:14:00;;;;;;;10.18;4.20;;;15.60;33.10;;;;;;5087008;28;20444;-82
2022/06/15 00:16:27;;;;;;;9.20;3.90;;;15.60;33.20;;;;;;5081428;28;20387;-82
2022/06/15 00:18:52;;;;;;;8.90;4.25;;;15.50;33.80;;;;;;5093978;28;20420;-80
2022/06/15 00:21:19;;;;;;;11.35;4.30;;;15.40;34.10;;;;;;5093611;28;20404;-81
2022/06/15 00:23:46;;;;;;;11.02;4.10;;;15.40;34.50;;;;;;5079643;28;20407;-82
2022/06/15 00:26:12;;;;;;;9.20;4.73;;;15.40;35.10;;;;;;5078403;28;20383;-81
2022/06/15 00:28:38;;;;;;;9.80;4.75;;;15.50;34.40;;;;;;5079871;28;20383;-83
2022/06/15 00:31:04;;;;;;;10.40;4.35;;;15.50;34.50;;;;;;5080926;28;20388;-83
2022/06/15 00:33:31;;;;;;;14.45;4.32;;;15.50;34.20;;;;;;5075744;28;20408;-81
2022/06/15 00:35:59;;;;;;;9.38;4.80;;;15.60;34.00;;;;;;5085269;28;20436;-79
2022/06/15 00:38:31;;;;;;;14.07;5.03;;;15.40;34.70;;;;;;5050810;28;20801;-81
2022/06/15 00:40:58;;;;;;;12.25;4.70;;;15.50;34.50;;;;;;5038619;28;20385;-83
2022/06/15 00:43:38;;;;;;;11.55;4.20;;;15.50;34.20;;;;;;5058213;28;20381;-83
2022/06/15 00:46:38;;;;;;;11.25;4.88;;;15.60;33.90;;;;;;5076413;28;20402;-82
2022/06/15 00:49:17;;;;;;;10.00;4.45;;;15.60;33.70;;;;;;5089921;28;20386;-82
2022/06/15 00:51:45;;;;;;;12.67;4.50;;;15.70;33.90;;;;;;5081314;28;20491;-79
2022/06/15 00:54:11;;;;;;;14.23;5.03;;;15.60;34.00;;;;;;5095559;28;20409;-81
2022/06/15 00:56:38;;;;;;;12.40;4.70;;;15.50;34.40;;;;;;5086137;28;20400;-82
2022/06/15 00:59:22;;;;;;;10.27;4.38;;;15.50;35.20;;;;;;5086099;28;20392;-83
2022/06/15 01:01:48;;;;;;;10.38;5.20;;;15.20;35.80;;;;;;5065607;28;20374;-85
2022/06/15 01:04:14;;;;;;;11.40;5.00;;;15.00;37.20;;;;;;5096548;28;20408;-80
2022/06/15 01:06:42;;;;;;;11.93;4.43;;;14.80;38.60;;;;;;5090240;28;20457;-83
2022/06/15 01:09:21;;;;;;;8.18;4.30;;;14.60;39.50;;;;;;5059059;28;20469;-83
2022/06/15 01:12:02;;;;;;;9.40;4.40;;;14.50;40.90;;;;;;5065532;28;20803;-83
2022/06/15 01:14:52;;;;;;;11.02;4.53;;;14.40;42.20;;;;;;5042698;28;20440;-84
2022/06/15 01:17:56;;;;;;;12.13;5.03;;;14.30;43.20;;;;;;5068130;28;20822;-84
2022/06/15 01:20:42;;;;;;;8.07;4.87;;;14.70;42.30;;;;;;5089368;28;20404;-81
2022/06/15 01:23:26;;;;;;;11.85;5.45;;;14.80;40.50;;;;;;5111967;28;20358;-80
2022/06/15 01:26:00;;;;;;;11.10;5.18;;;14.80;40.00;;;;;;5112203;28;20378;-83
2022/06/15 01:28:29;;;;;;;10.18;5.15;;;14.70;40.80;;;;;;5080058;28;20789;-79
2022/06/15 01:31:27;;;;;;;11.77;5.00;;;14.40;42.20;;;;;;5094566;28;20422;-79
2022/06/15 01:33:52;;;;;;;11.30;5.30;;;14.30;43.50;;;;;;5028124;28;20432;-83
2022/06/15 01:36:25;;;;;;;10.97;4.87;;;14.40;44.80;;;;;;5066427;28;20380;-83
2022/06/15 01:39:27;;;;;;;14.63;5.32;;;14.60;43.30;;;;;;5067389;28;20404;-82
2022/06/15 01:42:02;;;;;;;9.73;4.88;;;14.70;41.80;;;;;;5039441;28;20428;-81
2022/06/15 01:44:33;;;;;;;8.82;4.72;;;14.80;40.80;;;;;;5067312;28;20380;-81
2022/06/15 01:47:07;;;;;;;8.15;5.25;;;14.60;42.40;;;;;;5082012;28;20383;-83
2022/06/15 01:49:44;;;;;;;9.77;4.78;;;14.40;44.00;;;;;;5083527;28;20388;-84
2022/06/15 01:52:13;;;;;;;10.10;5.00;;;14.40;44.00;;;;;;5089182;28;20624;-83
2022/06/15 01:54:49;;;;;;;8.50;4.85;;;14.30;45.50;;;;;;5080513;28;20426;-81
2022/06/15 01:57:18;;;;;;;10.82;5.50;;;14.20;45.90;;;;;;5074699;28;20382;-82
2022/06/15 02:00:08;;;;;;;7.10;4.80;;;14.10;46.70;;;;;;5084355;28;20404;-82
2022/06/15 02:02:58;;;;;;;13.45;5.70;;;13.90;48.40;;;;;;5095208;28;20444;-82
2022/06/15 02:05:36;;;;;;;11.27;6.03;;;13.80;50.30;;;;;;5107316;28;20376;-81
2022/06/15 02:08:10;;;;;;;9.15;5.57;;;13.60;51.80;;;;;;5087717;28;20430;-80
2022/06/15 02:10:38;;;;;;;12.98;5.90;;;13.50;53.20;;;;;;5092734;28;20403;-82
2022/06/15 02:13:25;;;;;;;11.53;5.37;;;13.80;52.50;;;;;;5104439;28;20425;-81
2022/06/15 02:15:57;;;;;;;8.87;5.50;;;13.90;51.00;;;;;;5078329;28;20412;-82
2022/06/15 02:18:24;;;;;;;11.90;6.30;;;14.00;50.30;;;;;;5091512;28;20409;-80
2022/06/15 02:20:55;;;;;;;10.98;5.93;;;14.00;49.40;;;;;;5087739;28;20407;-82
2022/06/15 02:23:22;;;;;;;12.68;5.72;;;13.90;50.20;;;;;;5091420;28;20374;-81
2022/06/15 02:25:50;;;;;;;10.70;5.55;;;13.80;50.80;;;;;;5082180;28;20476;-80
2022/06/15 02:28:18;;;;;;;9.68;6.25;;;13.60;52.30;;;;;;5098659;28;20378;-82
2022/06/15 02:30:44;;;;;;;10.90;5.93;;;13.50;54.10;;;;;;5094469;28;20407;-83
2022/06/15 02:33:28;;;;;;;12.20;6.20;;;13.50;54.30;;;;;;5085551;28;20390;-83
2022/06/15 02:35:56;;;;;;;10.27;6.75;;;13.60;54.40;;;;;;5077805;28;20400;-82
2022/06/15 02:38:22;;;;;;;15.27;6.80;;;13.70;54.70;;;;;;5077189;28;20387;-82
2022/06/15 02:40:48;;;;;;;11.88;5.68;;;13.80;51.90;;;;;;5078769;28;20752;-83
2022/06/15 02:43:16;;;;;;;9.33;5.90;;;13.80;51.30;;;;;;5096838;28;20435;-81
2022/06/15 02:45:42;;;;;;;12.18;6.10;;;13.80;51.70;;;;;;5091077;28;20529;-81
2022/06/15 02:48:09;;;;;;;13.63;6.03;;;14.00;50.30;;;;;;5057189;28;20473;-81
2022/06/15 02:50:53;;;;;;;15.07;5.90;;;14.10;49.60;;;;;;5079776;28;20402;-84
2022/06/15 02:53:23;;;;;;;12.03;6.03;;;14.10;49.90;;;;;;5090518;28;20757;-79
2022/06/15 02:55:50;;;;;;;10.45;6.63;;;13.90;53.60;;;;;;5110056;28;20405;-82
2022/06/15 02:58:37;;;;;;;15.30;6.90;;;14.00;52.80;;;;;;5090618;28;20380;-81
2022/06/15 03:01:03;;;;;;;13.10;7.00;;;14.00;53.00;;;;;;5088646;28;20453;-82
2022/06/15 03:03:30;;;;;;;9.70;6.07;;;14.00;53.60;;;;;;5081547;28;20395;-85
2022/06/15 03:05:56;;;;;;;11.30;6.72;;;14.00;53.00;;;;;;5078282;28;20406;-84
2022/06/15 03:08:22;;;;;;;9.75;6.13;;;14.00;52.80;;;;;;5060912;28;20404;-84
2022/06/15 03:10:52;;;;;;;10.85;6.22;;;13.90;52.20;;;;;;5084474;28;20399;-83
2022/06/15 03:13:19;;;;;;;14.77;6.15;;;13.80;52.40;;;;;;5087625;28;20390;-82
2022/06/15 03:15:46;;;;;;;12.98;6.50;;;13.60;52.90;;;;;;5083840;28;20406;-85
2022/06/15 03:18:12;;;;;;;12.32;6.50;;;13.70;52.80;;;;;;5096718;28;20374;-84
2022/06/15 03:20:38;;;;;;;15.50;6.70;;;13.70;52.70;;;;;;5093217;28;20402;-84
2022/06/15 03:23:06;;;;;;;10.02;6.60;;;13.80;51.80;;;;;;5097090;28;20404;-82
2022/06/15 03:25:32;;;;;;;10.30;6.00;;;13.70;51.50;;;;;;5100019;28;20442;-82
2022/06/15 03:27:58;;;;;;;12.15;6.80;;;13.70;51.50;;;;;;5099458;28;20386;-84
2022/06/15 03:30:24;;;;;;;12.50;6.90;;;13.70;51.90;;;;;;5085482;28;20475;-83
2022/06/15 03:32:49;;;;;;;12.47;7.10;;;13.70;52.20;;;;;;5074077;28;20390;-83
2022/06/15 03:35:15;;;;;;;12.37;6.57;;;13.70;52.40;;;;;;5096882;28;20926;-86
2022/06/15 03:37:40;;;;;;;12.50;7.20;;;13.60;53.30;;;;;;5096812;28;20435;-82
2022/06/15 03:40:08;;;;;;;12.43;7.47;;;13.60;53.90;;;;;;5097106;28;20381;-83
2022/06/15 03:42:34;;;;;;;16.27;7.68;;;13.70;52.90;;;;;;5078590;28;20745;-82
2022/06/15 03:45:00;;;;;;;10.33;6.80;;;13.70;52.80;;;;;;5086023;28;20392;-85
2022/06/15 03:47:26;;;;;;;12.65;7.70;;;13.70;51.80;;;;;;5079425;28;20476;-84
2022/06/15 03:49:53;;;;;;;12.83;6.80;;;13.60;52.60;;;;;;5096225;28;20453;-84
2022/06/15 03:52:21;;;;;;;10.98;6.90;;;13.70;52.10;;;;;;5081056;28;20404;-85
2022/06/15 03:54:47;;;;;;;14.83;6.90;;;13.70;51.70;;;;;;5095835;28;20398;-86
2022/06/15 03:57:15;;;;;;;13.68;7.30;;;13.70;52.10;;;;;;5109303;28;20660;-83
2022/06/15 03:59:41;;;;;;;12.88;6.80;;;13.80;51.70;;;;;;5093639;28;20384;-83
2022/06/15 04:02:07;;;;;;;10.83;6.87;;;13.80;51.10;;;;;;5093735;28;20658;-82
2022/06/15 04:04:33;;;;;;;14.60;6.97;;;13.70;52.10;;;;;;5096445;28;20743;-82
2022/06/15 04:06:59;;;;;;;16.73;6.97;;;13.80;51.80;;;;;;5098497;28;20382;-83
2022/06/15 04:09:25;;;;;;;15.55;7.43;;;13.80;51.20;;;;;;5102407;22;20535;-75
2022/06/15 04:12:08;;;;;;;13.37;7.30;;;13.80;51.50;;;;;;5083013;28;20526;-75
2022/06/15 04:14:35;;;;;;;11.35;6.95;;;13.80;51.30;;;;;;5088790;28;20406;-78
2022/06/15 04:17:02;;;;;;;16.50;7.70;;;13.90;49.70;;;;;;5079539;28;20376;-75
2022/06/15 04:19:32;;;;;;;18.33;8.05;;;13.90;51.00;;;;;;5081594;28;20899;-75
2022/06/15 04:21:58;;;;;;;11.60;6.70;;;13.90;51.20;;;;;;5090867;28;20696;-75
2022/06/15 04:24:26;;;;;;;12.43;7.47;;;14.00;49.10;;;;;;5094647;28;20416;-77
2022/06/15 04:26:52;;;;;;;15.48;8.00;;;14.00;49.00;;;;;;5039636;28;20393;-75
2022/06/15 04:29:19;;;;;;;18.50;7.68;;;14.10;48.40;;;;;;5058403;28;20406;-75
2022/06/15 04:31:45;;;;;;;12.63;7.22;;;14.10;48.50;;;;;;5065856;28;20406;-74
2022/06/15 04:34:11;;;;;;;12.40;7.43;;;14.20;48.10;;;;;;5093140;28;20486;-74
2022/06/15 04:36:39;;;;;;;13.00;7.22;;;14.10;48.50;;;;;;5096018;28;20397;-75
2022/06/15 04:39:06;;;;;;;17.42;7.75;;;14.20;47.40;;;;;;5084169;28;20810;-75
2022/06/15 04:41:33;;;;;;;12.90;6.80;;;14.30;46.40;;;;;;5073083;28;20452;-75
2022/06/15 04:43:59;;;;;;;31.88;9.75;;;14.40;46.90;;;;;;5073081;28;20395;-75
2022/06/15 04:46:24;;;;;;;19.02;8.00;;;14.40;46.60;;;;;;5054826;28;20441;-75
2022/06/15 04:48:50;;;;;;;12.80;7.45;;;14.50;46.30;;;;;;5072075;28;20392;-74
2022/06/15 04:51:20;;;;;;;13.02;7.40;;;14.50;45.80;;;;;;5082004;28;20392;-75
2022/06/15 04:53:47;;;;;;;14.38;6.90;;;14.60;45.40;;;;;;5073837;28;20486;-74
2022/06/15 04:56:12;;;;;;;14.10;7.40;;;14.60;45.10;;;;;;5056085;28;20388;-74
2022/06/15 04:58:39;;;;;;;15.32;7.60;;;14.70;45.20;;;;;;5091918;28;20386;-74
2022/06/15 05:01:06;;;;;;;19.40;8.20;;;14.70;45.90;;;;;;5080211;28;20410;-74
2022/06/15 05:03:33;;;;;;;14.02;7.20;;;14.80;45.30;;;;;;5066648;28;20404;-72
2022/06/15 05:05:59;;;;;;;11.15;6.97;;;14.90;44.20;;;;;;5078795;28;20917;-74
2022/06/15 05:08:25;;;;;;;13.35;7.25;;;15.00;43.40;;;;;;5071409;28;20467;-74
2022/06/15 05:10:50;;;;;;;15.93;7.45;;;15.10;43.10;;;;;;5075429;28;20380;-76
2022/06/15 05:13:16;;;;;;;14.35;7.25;;;15.20;42.60;;;;;;5066914;28;20467;-75
2022/06/15 05:15:42;;;;;;;19.00;7.60;;;15.20;42.10;;;;;;5087749;28;20410;-74
2022/06/15 05:18:08;;;;;;;14.55;7.68;;;15.30;42.00;;;;;;5077768;28;20388;-74
2022/06/15 05:20:38;;;;;;;16.23;7.90;;;15.30;42.10;;;;;;5086234;28;20391;-76
2022/06/15 05:23:05;;;;;;;15.98;7.35;;;15.40;42.10;;;;;;5084995;28;20457;-75
2022/06/15 05:25:30;;;;;;;14.25;8.50;;;15.50;41.70;;;;;;5069203;28;20383;-76
2022/06/15 05:27:56;;;;;;;14.50;7.53;;;15.50;41.60;;;;;;5077104;28;20395;-76
2022/06/15 05:30:22;;;;;;;24.98;8.30;;;15.70;40.40;;;;;;5076904;28;20449;-75
2022/06/15 05:32:47;;;;;;;12.77;7.50;;;15.70;40.60;;;;;;5076103;28;20396;-74
2022/06/15 05:35:13;;;;;;;11.00;7.00;;;15.80;40.30;;;;;;5073155;28;20403;-76
2022/06/15 05:37:40;;;;;;;17.05;7.30;;;15.90;39.70;;;;;;5078001;28;20379;-74
2022/06/15 05:40:06;;;;;;;15.93;7.60;;;15.90;40.10;;;;;;5058931;28;20420;-74
2022/06/15 05:42:32;;;;;;;11.77;7.25;;;16.20;39.40;;;;;;5075917;28;20429;-76
2022/06/15 05:44:58;;;;;;;20.20;7.45;;;16.50;37.60;;;;;;5061592;28;20625;-76
2022/06/15 05:47:23;;;;;;;12.37;7.23;;;16.50;37.80;;;;;;5079574;28;20495;-75
2022/06/15 05:49:49;;;;;;;19.10;7.72;;;16.50;37.60;;;;;;5075972;28;20912;-75
2022/06/15 05:52:15;;;;;;;14.30;7.28;;;16.60;38.20;;;;;;5077615;28;20449;-74
2022/06/15 05:54:40;;;;;;;11.95;6.85;;;16.70;38.20;;;;;;5070376;28;20443;-73
2022/06/15 05:57:26;;;;;;;12.75;7.03;;;16.80;37.20;;;;;;5075257;28;20461;-74
2022/06/15 05:59:54;;;;;;;20.90;7.38;;;16.90;36.80;;;;;;5071732;28;20875;-75
2022/06/15 06:02:22;;;;;;;11.68;7.40;;;17.00;35.80;;;;;;5059263;28;20402;-74
2022/06/15 06:04:47;;;;;;;12.32;7.57;;;17.00;36.30;;;;;;5081580;28;20494;-74
2022/06/15 06:07:13;;;;;;;13.17;7.30;;;17.10;36.10;;;;;;5068305;28;20844;-75
2022/06/15 06:09:39;;;;;;;12.10;7.13;;;17.10;36.00;;;;;;5083710;28;20418;-71
2022/06/15 06:12:06;;;;;;;14.63;7.10;;;17.20;36.20;;;;;;5074886;28;20405;-72
2022/06/15 06:14:32;;;;;;;14.02;7.20;;;17.30;35.30;;;;;;5077561;28;20408;-72
2022/06/15 06:16:57;;;;;;;12.37;7.00;;;17.40;35.50;;;;;;5073995;28;20407;-76
2022/06/15 06:19:23;;;;;;;16.13;7.73;;;17.40;34.10;;;;;;5068995;28;20406;-77
2022/06/15 06:21:49;;;;;;;17.30;7.60;;;17.50;34.20;;;;;;5058167;28;20401;-78
2022/06/15 06:24:14;;;;;;;10.00;6.43;;;17.50;34.00;;;;;;5076987;28;20415;-80
2022/06/15 06:26:42;;;;;;;12.75;5.97;;;17.70;34.20;;;;;;5074139;28;20890;-75
2022/06/15 06:29:12;;;;;;;14.20;6.72;;;17.80;33.00;;;;;;5052558;28;20393;-76
2022/06/15 06:31:38;;;;;;;13.38;6.80;;;17.90;32.80;;;;;;5077163;28;20424;-79
2022/06/15 06:34:03;;;;;;;17.23;7.00;;;18.00;32.80;;;;;;5061087;28;20961;-78
2022/06/15 06:36:33;;;;;;;13.17;6.23;;;18.10;32.10;;;;;;5056320;28;20902;-75
2022/06/15 06:39:02;;;;;;;13.43;6.05;;;18.20;30.70;;;;;;5077191;28;20404;-75
2022/06/15 06:41:28;;;;;;;17.02;6.70;;;18.30;31.20;;;;;;5075427;28;20449;-75
2022/06/15 06:43:54;;;;;;;13.65;6.90;;;18.40;31.20;;;;;;5070962;28;20446;-77
2022/06/15 06:46:20;;;;;;;16.90;7.43;;;18.50;30.70;;;;;;5073294;28;20407;-74
2022/06/15 06:48:46;;;;;;;9.50;6.30;;;18.50;30.70;;;;;;5058563;28;20898;-75
2022/06/15 06:51:15;;;;;;;16.63;7.00;;;18.50;30.70;;;;;;5072022;28;20897;-79
2022/06/15 06:53:41;;;;;;;11.05;6.40;;;18.50;30.30;;;;;;5067910;28;20469;-75
2022/06/15 06:56:09;;;;;;;15.50;6.32;;;18.60;30.10;;;;;;5071956;28;20511;-75
2022/06/15 06:58:35;;;;;;;15.00;6.53;;;18.70;29.90;;;;;;5080186;28;20402;-76
2022/06/15 07:01:00;;;;;;;16.17;6.60;;;18.80;29.70;;;;;;5066071;28;20399;-76
2022/06/15 07:03:26;;;;;;;16.70;6.40;;;19.00;28.90;;;;;;5075374;28;20402;-75
2022/06/15 07:05:59;;;;;;;15.82;6.53;;;19.00;28.60;;;;;;5054601;28;20410;-76
2022/06/15 07:08:24;;;;;;;11.05;5.50;;;18.90;28.80;;;;;;5075601;28;20892;-75
2022/06/15 07:10:50;;;;;;;12.53;6.50;;;19.10;28.90;;;;;;5079796;28;20451;-77
2022/06/15 07:13:16;;;;;;;14.00;6.00;;;19.40;28.20;;;;;;5073952;28;20405;-75
2022/06/15 07:15:41;;;;;;;11.57;5.90;;;19.50;25.90;;;;;;5084684;28;20394;-77
2022/06/15 07:18:07;;;;;;;10.70;5.83;;;19.50;26.20;;;;;;5091468;28;20889;-76
2022/06/15 07:20:33;;;;;;;17.17;5.78;;;19.50;26.60;;;;;;5075316;28;20407;-76
2022/06/15 07:22:59;;;;;;;17.25;6.47;;;19.70;26.90;;;;;;5070004;28;20747;-77
2022/06/15 07:25:24;;;;;;;12.47;5.70;;;19.70;25.00;;;;;;5058776;28;20405;-76
2022/06/15 07:27:51;;;;;;;10.00;5.47;;;19.70;25.40;;;;;;5073633;28;20414;-78
2022/06/15 07:30:20;;;;;;;15.80;5.60;;;19.70;25.90;;;;;;5082870;28;20848;-79
2022/06/15 07:32:46;;;;;;;8.43;5.20;;;19.90;26.40;;;;;;5074700;28;20406;-78
2022/06/15 07:35:17;;;;;;;11.05;5.38;;;20.00;25.80;;;;;;5071744;28;20401;-74
2022/06/15 07:37:43;;;;;;;10.73;4.50;;;20.10;24.90;;;;;;5075020;28;20402;-73
2022/06/15 07:40:10;;;;;;;10.60;4.95;;;20.20;24.10;;;;;;5069189;28;20397;-73
2022/06/15 07:42:35;;;;;;;13.52;5.10;;;20.20;24.10;;;;;;5070738;28;20398;-72
2022/06/15 07:45:01;;;;;;;12.70;5.00;;;20.30;22.70;;;;;;5062485;28;20403;-73
2022/06/15 07:50:11;;;;;;;14.55;5.38;;;20.30;22.70;;;;;;5082325;28;20508;-75
2022/06/15 07:52:42;;;;;;;9.02;4.65;;;20.30;23.40;;;;;;5077422;28;20833;-75
2022/06/15 07:55:10;;;;;;;11.23;4.30;;;20.40;23.00;;;;;;5063148;28;20909;-77
2022/06/15 07:57:36;;;;;;;11.77;5.20;;;20.50;20.90;;;;;;5077154;28;20437;-75
2022/06/15 08:00:06;;;;;;;7.63;4.23;;;20.60;21.50;;;;;;5082621;28;20882;-77
2022/06/15 08:02:33;;;;;;;7.20;4.40;;;20.60;20.80;;;;;;5082977;28;20391;-76
2022/06/15 08:04:58;;;;;;;9.80;4.57;;;20.80;21.70;;;;;;5068088;28;20954;-77
2022/06/15 08:07:24;;;;;;;7.63;4.60;;;20.70;20.60;;;;;;5075941;28;20490;-76
2022/06/15 08:09:50;;;;;;;9.20;4.55;;;20.70;21.60;;;;;;5069637;28;20414;-78
2022/06/15 08:12:16;;;;;;;9.63;4.70;;;20.60;21.90;;;;;;5074446;28;20824;-81
2022/06/15 08:15:10;;;;;;;12.20;4.50;;;20.70;21.30;;;;;;5060660;28;20415;-79
2022/06/15 08:17:45;;;;;;;10.30;4.63;;;20.90;21.00;;;;;;5077497;28;20410;-77
2022/06/15 08:20:19;;;;;;;14.07;4.20;;;21.00;21.00;;;;;;5073396;28;20397;-76
2022/06/15 08:22:47;;;;;;;7.97;3.67;;;21.00;20.00;;;;;;5068030;28;20456;-78
2022/06/15 08:25:20;;;;;;;7.18;4.55;;;21.10;19.60;;;;;;5061643;28;20408;-76
2022/06/15 08:27:47;;;;;;;9.02;4.60;;;21.20;20.00;;;;;;5087938;28;20420;-77
2022/06/15 08:30:14;;;;;;;7.03;4.22;;;21.30;19.60;;;;;;5080456;28;20413;-76
2022/06/15 08:32:41;;;;;;;9.68;4.35;;;21.40;19.60;;;;;;5077839;28;20492;-76
2022/06/15 08:35:07;;;;;;;5.97;3.70;;;21.40;19.50;;;;;;5069698;28;20411;-76
2022/06/15 08:37:33;;;;;;;11.52;4.20;;;21.50;19.40;;;;;;5059712;28;20733;-75
2022/06/15 08:39:59;;;;;;;8.05;4.15;;;21.70;18.50;;;;;;5050284;28;20929;-74
2022/06/15 08:42:39;;;;;;;6.60;3.87;;;21.90;18.50;;;;;;5080287;28;20412;-74
2022/06/15 08:45:18;;;;;;;8.07;4.32;;;21.90;18.00;;;;;;5084973;28;20534;-75
2022/06/15 08:48:26;;;;;;;8.20;4.20;;;21.90;17.20;;;;;;5074837;28;20406;-74
2022/06/15 08:51:04;;;;;;;6.55;4.00;;;21.90;17.80;;;;;;5082744;28;20424;-76
2022/06/15 08:53:58;;;;;;;11.90;4.40;;;21.90;18.00;;;;;;5077299;28;20502;-77
2022/06/15 08:56:27;;;;;;;9.77;3.70;;;22.00;17.50;;;;;;5079849;28;21023;-76
2022/06/15 08:59:17;;;;;;;8.15;3.97;;;22.20;17.40;;;;;;5086170;28;20753;-76
2022/06/15 09:02:12;;;;;;;5.05;3.50;;;22.30;16.20;;;;;;5057717;28;20377;-76
2022/06/15 09:05:04;;;;;;;7.82;3.50;;;22.50;16.30;;;;;;5058538;28;20456;-76
2022/06/15 09:07:45;;;;;;;7.72;4.00;;;22.60;15.90;;;;;;5060584;28;20410;-77
2022/06/15 09:10:20;;;;;;;9.13;3.53;;;22.60;16.30;;;;;;5098358;28;20463;-77
2022/06/15 09:13:02;;;;;;;6.40;3.60;;;22.70;16.20;;;;;;5051590;28;20385;-76
2022/06/15 09:15:58;;;;;;;5.18;3.28;;;22.60;15.00;;;;;;5055265;28;20488;-76
2022/06/15 09:18:36;;;;;;;11.55;3.33;;;22.70;14.70;;;;;;5084494;28;20404;-75
2022/06/15 09:21:07;;;;;;;7.97;3.50;;;22.80;14.70;;;;;;5080146;28;20895;-75
2022/06/15 09:23:52;;;;;;;11.13;3.20;;;22.90;14.90;;;;;;5083232;28;20389;-75
2022/06/15 09:26:27;;;;;;;7.37;3.50;;;23.10;15.10;;;;;;5078329;28;20875;-76
2022/06/15 09:29:01;;;;;;;7.45;3.60;;;23.30;14.80;;;;;;5064107;28;20393;-76
2022/06/15 09:31:46;;;;;;;7.43;3.42;;;23.40;14.90;;;;;;5096181;28;20393;-76
2022/06/15 09:34:16;;;;;;;8.15;4.00;;;23.40;13.80;;;;;;5102466;28;20568;-77
2022/06/15 09:36:55;;;;;;;6.43;3.53;;;23.40;13.70;;;;;;5079221;28;20410;-75
2022/06/15 09:39:22;;;;;;;8.75;3.80;;;23.20;14.50;;;;;;5081905;28;20403;-76
2022/06/15 09:42:04;;;;;;;9.23;3.60;;;23.30;14.40;;;;;;5070301;28;20375;-76
2022/06/15 09:44:57;;;;;;;9.73;4.10;;;23.30;13.80;;;;;;5085247;28;20423;-75
2022/06/15 09:47:31;;;;;;;6.07;3.50;;;23.20;14.20;;;;;;5081653;28;20400;-75
2022/06/15 09:50:13;;;;;;;8.88;3.70;;;23.10;14.10;;;;;;5082264;28;20745;-75
2022/06/15 09:53:18;;;;;;;9.68;3.70;;;23.20;14.60;;;;;;5075155;28;20383;-76
2022/06/15 09:56:00;;;;;;;10.25;4.00;;;23.20;14.60;;;;;;5074270;28;20491;-76
2022/06/15 09:58:36;;;;;;;14.07;3.80;;;23.30;14.90;;;;;;5083369;28;20394;-75
2022/06/15 10:01:02;;;;;;;8.52;3.78;;;23.40;14.20;;;;;;5081240;28;20376;-76
2022/06/15 10:03:35;;;;;;;10.20;3.97;;;23.40;14.20;;;;;;5075712;28;20386;-77
2022/06/15 10:06:21;;;;;;;10.00;4.00;;;23.30;13.30;;;;;;5073060;28;20407;-76
2022/06/15 10:08:47;;;;;;;5.47;3.40;;;23.30;12.70;;;;;;5088928;22;20380;-75
2022/06/15 10:11:21;;;;;;;8.95;3.90;;;23.30;13.40;;;;;;5072150;28;20446;-77
2022/06/15 10:13:46;;;;;;;10.75;3.85;;;23.40;13.60;;;;;;5079597;28;20368;-76
2022/06/15 10:16:15;;;;;;;6.93;3.50;;;23.50;12.70;;;;;;5056271;28;20442;-77
2022/06/15 10:18:47;;;;;;;10.63;3.90;;;23.50;12.60;;;;;;5074441;28;20390;-76
2022/06/15 10:21:13;;;;;;;8.93;3.47;;;23.70;11.70;;;;;;5076299;28;20441;-77
2022/06/15 10:23:49;;;;;;;9.40;4.00;;;23.70;12.40;;;;;;5074820;28;20761;-77
2022/06/15 10:26:35;;;;;;;8.50;3.30;;;23.80;12.40;;;;;;5082238;28;20400;-77
2022/06/15 10:29:22;;;;;;;7.43;3.50;;;24.00;11.20;;;;;;5079063;28;20800;-77
2022/06/15 10:31:59;;;;;;;11.70;3.60;;;24.00;10.00;;;;;;5074648;28;20437;-76
2022/06/15 10:34:29;;;;;;;10.07;3.47;;;23.90;10.30;;;;;;5076563;28;20414;-78
2022/06/15 10:37:06;;;;;;;6.03;2.92;;;24.00;10.50;;;;;;5066798;28;20379;-77
2022/06/15 10:39:34;;;;;;;7.35;4.00;;;24.20;10.90;;;;;;5065147;28;20557;-76
2022/06/15 10:42:07;;;;;;;10.30;3.60;;;24.30;10.10;;;;;;5086164;28;20402;-77
2022/06/15 10:44:39;;;;;;;8.18;3.33;;;24.40;9.80;;;;;;5067609;28;20859;-77
2022/06/15 10:47:20;;;;;;;5.72;3.20;;;24.50;10.30;;;;;;5079677;28;20443;-77
2022/06/15 10:50:01;;;;;;;7.40;3.67;;;24.60;10.00;;;;;;5078299;28;20728;-77
2022/06/15 10:52:48;;;;;;;7.25;3.22;;;24.50;9.80;;;;;;5083296;28;20388;-77
2022/06/15 11:04:32;;;;;;;6.90;3.50;;;24.60;10.30;;;;;;5059808;28;20491;-77
2022/06/15 11:07:04;;;;;;;8.00;3.37;;;24.90;10.50;;;;;;5084536;28;20427;-76
2022/06/15 11:09:36;;;;;;;8.27;3.50;;;25.00;10.10;;;;;;5055759;28;20447;-77
2022/06/15 11:12:22;;;;;;;9.67;3.40;;;25.20;9.20;;;;;;5079173;28;20475;-77
2022/06/15 11:15:00;;;;;;;8.40;2.90;;;25.40;9.10;;;;;;5094692;28;20618;-78
2022/06/15 11:20:52;;;;;;;7.20;3.08;;;25.60;8.70;;;;;;5087109;28;20421;-79
2022/06/15 11:23:18;;;;;;;7.72;3.40;;;25.70;7.90;;;;;;5087063;28;20407;-78
2022/06/15 11:25:49;;;;;;;5.95;3.05;;;25.60;7.70;;;;;;5102821;28;20397;-82
2022/06/15 11:28:25;;;;;;;6.72;3.53;;;25.70;7.10;;;;;;5094554;28;20386;-78
2022/06/15 11:30:56;;;;;;;9.10;3.33;;;25.80;7.40;;;;;;5081436;28;20413;-77
2022/06/15 11:33:44;;;;;;;6.53;3.47;;;26.00;7.10;;;;;;5087615;28;20386;-77
2022/06/15 11:36:25;;;;;;;6.25;2.97;;;26.10;6.20;;;;;;5084888;28;20410;-78
2022/06/15 11:38:59;;;;;;;9.57;3.38;;;26.00;7.30;;;;;;5089818;28;20394;-77
2022/06/15 11:41:30;;;;;;;10.23;3.25;;;26.00;8.50;;;;;;5115310;28;20382;-78
2022/06/15 11:43:59;;;;;;;8.85;3.47;;;26.10;7.90;;;;;;5096763;28;20464;-79
2022/06/15 11:46:41;;;;;;;5.60;3.40;;;26.30;7.30;;;;;;5089930;28;20417;-77
2022/06/15 11:49:44;;;;;;;9.27;3.38;;;26.40;6.60;;;;;;5079512;28;20372;-78
2022/06/15 11:52:23;;;;;;;10.60;3.63;;;26.30;8.00;;;;;;5070263;28;20459;-77
2022/06/15 11:55:15;;;;;;;6.30;3.08;;;26.30;7.20;;;;;;5068033;28;20454;-77
2022/06/15 11:57:53;;;;;;;5.88;3.00;;;26.40;6.90;;;;;;5069016;28;20488;-78
2022/06/15 12:00:52;;;;;;;8.25;3.10;;;26.20;5.70;;;;;;5075714;28;20748;-78
2022/06/15 12:03:55;;;;;;;5.40;3.10;;;26.40;6.60;;;;;;5047107;28;20423;-77
2022/06/15 12:06:57;;;;;;;7.25;3.70;;;26.50;5.70;;;;;;5066948;28;20499;-77
2022/06/15 12:09:35;;;;;;;6.43;3.00;;;26.40;6.10;;;;;;5082417;28;20420;-76
2022/06/15 12:12:38;;;;;;;10.50;3.60;;;26.50;5.80;;;;;;5073273;28;20430;-78
2022/06/15 12:15:25;;;;;;;8.48;3.40;;;26.30;5.60;;;;;;5091944;28;20778;-80
2022/06/15 12:18:18;;;;;;;7.22;3.10;;;26.30;6.80;;;;;;5045602;28;20841;-78
2022/06/15 12:20:56;;;;;;;7.30;3.15;;;26.60;6.40;;;;;;5075248;28;20396;-78
2022/06/15 12:23:25;;;;;;;8.48;3.40;;;26.80;6.60;;;;;;5090106;28;20487;-78
2022/06/15 12:26:31;;;;;;;8.98;3.78;;;26.90;6.20;;;;;;5107561;28;20543;-80
2022/06/15 12:29:12;;;;;;;11.50;3.25;;;27.10;5.60;;;;;;5067451;28;20402;-79
2022/06/15 12:32:10;;;;;;;4.47;2.90;;;27.40;7.00;;;;;;5075852;28;20397;-79
2022/06/15 12:35:02;;;;;;;5.05;2.88;;;27.50;5.10;;;;;;5080627;28;20703;-80
2022/06/15 12:37:48;;;;;;;7.00;3.40;;;27.60;4.60;;;;;;5052149;28;20459;-79
2022/06/15 12:40:33;;;;;;;5.70;3.10;;;27.70;5.40;;;;;;5070441;28;20387;-79
2022/06/15 12:43:38;;;;;;;8.82;3.30;;;27.60;4.20;;;;;;5082705;28;20406;-80
2022/06/15 12:46:13;;;;;;;9.65;3.20;;;27.60;4.10;;;;;;5057638;28;20409;-78
2022/06/15 12:49:01;;;;;;;7.15;3.10;;;27.70;5.10;;;;;;5066813;28;20425;-82
2022/06/15 12:51:54;;;;;;;7.85;3.40;;;27.90;5.00;;;;;;5065005;28;20406;-84
2022/06/15 12:54:55;;;;;;;4.53;3.03;;;28.00;5.80;;;;;;5064209;28;20774;-77
2022/06/15 12:57:59;;;;;;;11.27;3.70;;;28.10;5.80;;;;;;5072779;28;20396;-76
2022/06/15 13:00:51;;;;;;;10.03;3.33;;;28.20;5.90;;;;;;5078127;28;20438;-76
2022/06/15 13:03:51;;;;;;;5.70;3.20;;;28.30;5.20;;;;;;5087412;28;20906;-77
2022/06/15 13:06:24;;;;;;;6.40;3.70;;;28.40;5.20;;;;;;5082445;28;20391;-77
2022/06/15 13:09:12;;;;;;;10.20;3.85;;;28.40;5.70;;;;;;5052015;28;20397;-77
2022/06/15 13:12:04;;;;;;;10.60;3.70;;;28.40;4.90;;;;;;5090957;28;20400;-77
2022/06/15 13:14:55;;;;;;;6.40;3.15;;;28.10;4.30;;;;;;5078127;28;20484;-77
2022/06/15 13:17:25;;;;;;;4.70;2.90;;;28.20;5.00;;;;;;5095166;28;20396;-77
2022/06/15 13:20:08;;;;;;;6.68;2.70;;;28.50;3.80;;;;;;5090427;28;20393;-77
2022/06/15 13:22:40;;;;;;;10.13;3.25;;;29.10;2.30;;;;;;5088431;28;20427;-77
2022/06/15 13:25:11;;;;;;;6.50;2.85;;;29.10;3.10;;;;;;5095137;28;20451;-76
2022/06/15 13:27:44;;;;;;;4.93;3.17;;;29.40;2.40;;;;;;5090096;28;20403;-78
2022/06/15 13:30:30;;;;;;;7.65;3.30;;;29.30;1.40;;;;;;5088366;28;20410;-77